sensor_id;sensor_type;location;lat;lon;timestamp;temperature;humidity
77700;DHT22;66867;42.658;23.320;2023-03-08T00:00:00;10.5;56
77700;DHT22;66867;42.658;23.320;2023-03-08T00:01:00;10.5;56
77700;DHT22;66867;42.658;23.320;2023-03-08T00:02:00;10.5;56
77700;DHT22;66867;42.658;23.320;2023-03-08T00:03:00;10.5;56
77700;DHT22;66867;42.658;23.320;2023-03-08T00:06:03;10.6;56
77700;DHT22;66867;42.658;23.320;2023-03-08T00:07:00;10.6;56
77700;DHT22;66867;42.658;23.320;2023-03-08T00:08:00;10.6;56
77700;DHT22;66867;42.658;23.320;2023-03-08T00:09:00;10.5;56
77700;DHT22;66867;42.658;23.320;2023-03-08T00:10:00;10.5;57
77700;DHT22;66867;42.658;23.320;2023-03-08T00:11:03;10.5;57
77700;DHT22;66867;42.658;23.320;2023-03-08T00:12:00;10.5;57
77700;DHT22;66867;42.658;23.320;2023-03-08T00:13:00;10.5;56
77700;DHT22;66867;42.658;23.320;2023-03-08T00:14:00;10.5;56
77700;DHT22;66867;42.658;23.320;2023-03-08T00:15:00;10.5;56
77700;DHT22;66867;42.658;23.320;2023-03-08T00:16:01;10.5;56
77700;DHT22;66867;42.658;23.320;2023-03-08T00:17:00;10.5;57
77700;DHT22;66867;42.658;23.320;2023-03-08T00:18:00;10.4;57
77700;DHT22;66867;42.658;23.320;2023-03-08T00:19:00;10.4;57
77700;DHT22;66867;42.658;23.320;2023-03-08T00:20:00;10.4;57
77700;DHT22;66867;42.658;23.320;2023-03-08T00:21:01;10.4;57
77700;DHT22;66867;42.658;23.320;2023-03-08T00:22:00;10.4;57
77700;DHT22;66867;42.658;23.320;2023-03-08T00:23:00;10.4;57
77700;DHT22;66867;42.658;23.320;2023-03-08T00:24:00;10.4;57
77700;DHT22;66867;42.658;23.320;2023-03-08T00:25:00;10.3;57
77700;DHT22;66867;42.658;23.320;2023-03-08T00:26:00;10.3;57
77700;DHT22;66867;42.658;23.320;2023-03-08T00:27:00;10.3;57
77700;DHT22;66867;42.658;23.320;2023-03-08T00:28:00;10.3;57
77700;DHT22;66867;42.658;23.320;2023-03-08T00:29:00;10.3;57
77700;DHT22;66867;42.658;23.320;2023-03-08T00:30:00;10.3;57
77700;DHT22;66867;42.658;23.320;2023-03-08T00:31:01;10.3;57
77700;DHT22;66867;42.658;23.320;2023-03-08T00:32:00;10.3;58
77700;DHT22;66867;42.658;23.320;2023-03-08T00:33:00;10.3;58
77700;DHT22;66867;42.658;23.320;2023-03-08T00:34:00;10.3;58
77700;DHT22;66867;42.658;23.320;2023-03-08T00:35:00;10.3;58
77700;DHT22;66867;42.658;23.320;2023-03-08T00:36:01;10.3;58
77700;DHT22;66867;42.658;23.320;2023-03-08T00:37:00;10.3;58
77700;DHT22;66867;42.658;23.320;2023-03-08T00:38:00;10.3;58
77700;DHT22;66867;42.658;23.320;2023-03-08T00:39:00;10.3;58
77700;DHT22;66867;42.658;23.320;2023-03-08T00:40:00;10.3;58
77700;DHT22;66867;42.658;23.320;2023-03-08T00:41:00;10.3;58
77700;DHT22;66867;42.658;23.320;2023-03-08T00:42:00;10.3;58
77700;DHT22;66867;42.658;23.320;2023-03-08T00:43:00;10.3;58
77700;DHT22;66867;42.658;23.320;2023-03-08T00:44:00;10.3;58
77700;DHT22;66867;42.658;23.320;2023-03-08T00:45:00;10.3;58
77700;DHT22;66867;42.658;23.320;2023-03-08T00:46:00;10.3;58
77700;DHT22;66867;42.658;23.320;2023-03-08T00:47:00;10.3;58
77700;DHT22;66867;42.658;23.320;2023-03-08T00:48:00;10.3;58
77700;DHT22;66867;42.658;23.320;2023-03-08T00:49:00;10.2;58
77700;DHT22;66867;42.658;23.320;2023-03-08T00:50:00;10.2;58
77700;DHT22;66867;42.658;23.320;2023-03-08T00:51:00;10.3;58
77700;DHT22;66867;42.658;23.320;2023-03-08T00:52:00;10.3;58
77700;DHT22;66867;42.658;23.320;2023-03-08T00:53:00;10.3;58
77700;DHT22;66867;42.658;23.320;2023-03-08T00:54:00;10.3;58
77700;DHT22;66867;42.658;23.320;2023-03-08T00:55:00;10.3;58
77700;DHT22;66867;42.658;23.320;2023-03-08T00:56:00;10.3;58
77700;DHT22;66867;42.658;23.320;2023-03-08T00:57:00;10.3;58
77700;DHT22;66867;42.658;23.320;2023-03-08T00:58:00;10.3;58
77700;DHT22;66867;42.658;23.320;2023-03-08T00:59:00;10.3;58
77700;DHT22;66867;42.658;23.320;2023-03-08T01:00:00;10.3;58
77700;DHT22;66867;42.658;23.320;2023-03-08T01:01:00;10.3;58
77700;DHT22;66867;42.658;23.320;2023-03-08T01:02:00;10.3;58
77700;DHT22;66867;42.658;23.320;2023-03-08T01:03:00;10.3;58
77700;DHT22;66867;42.658;23.320;2023-03-08T01:04:00;10.3;58
77700;DHT22;66867;42.658;23.320;2023-03-08T01:05:00;10.3;58
77700;DHT22;66867;42.658;23.320;2023-03-08T01:06:04;10.3;58
77700;DHT22;66867;42.658;23.320;2023-03-08T01:07:00;10.3;58
77700;DHT22;66867;42.658;23.320;2023-03-08T01:08:00;10.3;58
77700;DHT22;66867;42.658;23.320;2023-03-08T01:09:00;10.3;58
77700;DHT22;66867;42.658;23.320;2023-03-08T01:10:00;10.3;58
77700;DHT22;66867;42.658;23.320;2023-03-08T01:11:00;10.3;58
77700;DHT22;66867;42.658;23.320;2023-03-08T01:12:00;10.3;58
77700;DHT22;66867;42.658;23.320;2023-03-08T01:13:00;10.3;58
77700;DHT22;66867;42.658;23.320;2023-03-08T01:14:00;10.3;58
77700;DHT22;66867;42.658;23.320;2023-03-08T01:15:00;10.2;58
77700;DHT22;66867;42.658;23.320;2023-03-08T01:16:00;10.2;58
77700;DHT22;66867;42.658;23.320;2023-03-08T01:17:00;10.2;59
77700;DHT22;66867;42.658;23.320;2023-03-08T01:18:00;10.2;59
77700;DHT22;66867;42.658;23.320;2023-03-08T01:19:00;10.2;59
77700;DHT22;66867;42.658;23.320;2023-03-08T01:20:00;10.2;59
77700;DHT22;66867;42.658;23.320;2023-03-08T01:21:01;10.2;59
77700;DHT22;66867;42.658;23.320;2023-03-08T01:22:00;10.1;59
77700;DHT22;66867;42.658;23.320;2023-03-08T01:23:00;10.1;59
77700;DHT22;66867;42.658;23.320;2023-03-08T01:24:00;10.1;59
77700;DHT22;66867;42.658;23.320;2023-03-08T01:25:00;10.1;59
77700;DHT22;66867;42.658;23.320;2023-03-08T01:26:01;10.1;59
77700;DHT22;66867;42.658;23.320;2023-03-08T01:27:00;10.0;59
77700;DHT22;66867;42.658;23.320;2023-03-08T01:28:00;10.0;59
77700;DHT22;66867;42.658;23.320;2023-03-08T01:29:00;10.0;59
77700;DHT22;66867;42.658;23.320;2023-03-08T01:30:00;10.0;59
77700;DHT22;66867;42.658;23.320;2023-03-08T01:31:01;10.0;60
77700;DHT22;66867;42.658;23.320;2023-03-08T01:32:00;10.0;59
77700;DHT22;66867;42.658;23.320;2023-03-08T01:33:00;10.0;59
77700;DHT22;66867;42.658;23.320;2023-03-08T01:34:00;10.0;60
77700;DHT22;66867;42.658;23.320;2023-03-08T01:35:00;9.9;60
77700;DHT22;66867;42.658;23.320;2023-03-08T01:36:02;10.0;60
77700;DHT22;66867;42.658;23.320;2023-03-08T01:37:00;10.0;60
77700;DHT22;66867;42.658;23.320;2023-03-08T01:38:00;9.9;60
77700;DHT22;66867;42.658;23.320;2023-03-08T01:39:00;9.9;60
77700;DHT22;66867;42.658;23.320;2023-03-08T01:40:00;9.9;60
77700;DHT22;66867;42.658;23.320;2023-03-08T01:41:01;9.9;60
77700;DHT22;66867;42.658;23.320;2023-03-08T01:42:02;9.9;60
77700;DHT22;66867;42.658;23.320;2023-03-08T01:43:10;9.9;60
77700;DHT22;66867;42.658;23.320;2023-03-08T01:44:00;9.9;60
77700;DHT22;66867;42.658;23.320;2023-03-08T01:45:03;9.9;60
77700;DHT22;66867;42.658;23.320;2023-03-08T01:47:00;9.9;60
77700;DHT22;66867;42.658;23.320;2023-03-08T01:48:00;9.9;60
77700;DHT22;66867;42.658;23.320;2023-03-08T01:49:02;9.9;60
77700;DHT22;66867;42.658;23.320;2023-03-08T01:50:02;9.9;60
77700;DHT22;66867;42.658;23.320;2023-03-08T01:51:00;9.9;60
77700;DHT22;66867;42.658;23.320;2023-03-08T01:52:04;9.9;60
77700;DHT22;66867;42.658;23.320;2023-03-08T01:53:00;9.9;60
77700;DHT22;66867;42.658;23.320;2023-03-08T01:54:02;9.9;60
77700;DHT22;66867;42.658;23.320;2023-03-08T01:55:02;9.8;60
77700;DHT22;66867;42.658;23.320;2023-03-08T01:56:00;9.8;60
77700;DHT22;66867;42.658;23.320;2023-03-08T01:57:01;9.8;60
77700;DHT22;66867;42.658;23.320;2023-03-08T01:58:00;9.8;60
77700;DHT22;66867;42.658;23.320;2023-03-08T01:59:00;9.8;61
77700;DHT22;66867;42.658;23.320;2023-03-08T02:00:05;9.8;61
77700;DHT22;66867;42.658;23.320;2023-03-08T02:01:00;9.8;61
77700;DHT22;66867;42.658;23.320;2023-03-08T02:02:00;9.7;61
77700;DHT22;66867;42.658;23.320;2023-03-08T02:03:01;9.7;61
77700;DHT22;66867;42.658;23.320;2023-03-08T02:04:00;9.7;61
77700;DHT22;66867;42.658;23.320;2023-03-08T02:05:00;9.7;61
77700;DHT22;66867;42.658;23.320;2023-03-08T02:06:00;9.7;61
77700;DHT22;66867;42.658;23.320;2023-03-08T02:07:00;9.7;61
77700;DHT22;66867;42.658;23.320;2023-03-08T02:08:00;9.7;61
77700;DHT22;66867;42.658;23.320;2023-03-08T02:09:00;9.7;61
77700;DHT22;66867;42.658;23.320;2023-03-08T02:10:00;9.7;61
77700;DHT22;66867;42.658;23.320;2023-03-08T02:11:00;9.7;61
77700;DHT22;66867;42.658;23.320;2023-03-08T02:12:00;9.7;61
77700;DHT22;66867;42.658;23.320;2023-03-08T02:13:00;9.7;61
77700;DHT22;66867;42.658;23.320;2023-03-08T02:14:00;9.7;61
77700;DHT22;66867;42.658;23.320;2023-03-08T02:15:00;9.7;61
77700;DHT22;66867;42.658;23.320;2023-03-08T02:16:00;9.6;61
77700;DHT22;66867;42.658;23.320;2023-03-08T02:17:00;9.6;61
77700;DHT22;66867;42.658;23.320;2023-03-08T02:18:00;9.6;61
77700;DHT22;66867;42.658;23.320;2023-03-08T02:19:02;9.6;61
77700;DHT22;66867;42.658;23.320;2023-03-08T02:20:17;9.6;61
77700;DHT22;66867;42.658;23.320;2023-03-08T02:21:00;9.6;61
77700;DHT22;66867;42.658;23.320;2023-03-08T02:22:08;9.6;61
77700;DHT22;66867;42.658;23.320;2023-03-08T02:24:04;9.6;61
77700;DHT22;66867;42.658;23.320;2023-03-08T02:25:00;9.6;61
77700;DHT22;66867;42.658;23.320;2023-03-08T02:26:02;9.6;61
77700;DHT22;66867;42.658;23.320;2023-03-08T02:27:03;9.6;61
77700;DHT22;66867;42.658;23.320;2023-03-08T02:28:00;9.6;61
77700;DHT22;66867;42.658;23.320;2023-03-08T02:29:00;9.6;61
77700;DHT22;66867;42.658;23.320;2023-03-08T02:30:00;9.6;61
77700;DHT22;66867;42.658;23.320;2023-03-08T02:31:00;9.6;61
77700;DHT22;66867;42.658;23.320;2023-03-08T02:32:00;9.6;61
77700;DHT22;66867;42.658;23.320;2023-03-08T02:33:00;9.5;61
77700;DHT22;66867;42.658;23.320;2023-03-08T02:34:00;9.5;61
77700;DHT22;66867;42.658;23.320;2023-03-08T02:35:00;9.5;61
77700;DHT22;66867;42.658;23.320;2023-03-08T02:36:01;9.5;61
77700;DHT22;66867;42.658;23.320;2023-03-08T02:37:00;9.5;61
77700;DHT22;66867;42.658;23.320;2023-03-08T02:38:00;9.5;61
77700;DHT22;66867;42.658;23.320;2023-03-08T02:39:00;9.5;62
77700;DHT22;66867;42.658;23.320;2023-03-08T02:40:00;9.5;62
77700;DHT22;66867;42.658;23.320;2023-03-08T02:41:00;9.5;62
77700;DHT22;66867;42.658;23.320;2023-03-08T02:42:00;9.5;62
77700;DHT22;66867;42.658;23.320;2023-03-08T02:43:00;9.5;62
77700;DHT22;66867;42.658;23.320;2023-03-08T02:44:00;9.5;62
77700;DHT22;66867;42.658;23.320;2023-03-08T02:45:00;9.5;62
77700;DHT22;66867;42.658;23.320;2023-03-08T02:46:00;9.4;62
77700;DHT22;66867;42.658;23.320;2023-03-08T02:47:00;9.4;62
77700;DHT22;66867;42.658;23.320;2023-03-08T02:48:01;9.3;62
77700;DHT22;66867;42.658;23.320;2023-03-08T02:49:00;9.3;62
77700;DHT22;66867;42.658;23.320;2023-03-08T02:50:00;9.3;62
77700;DHT22;66867;42.658;23.320;2023-03-08T02:51:00;9.3;62
77700;DHT22;66867;42.658;23.320;2023-03-08T02:52:00;9.3;62
77700;DHT22;66867;42.658;23.320;2023-03-08T02:53:00;9.4;62
77700;DHT22;66867;42.658;23.320;2023-03-08T02:54:00;9.3;62
77700;DHT22;66867;42.658;23.320;2023-03-08T02:55:00;9.3;62
77700;DHT22;66867;42.658;23.320;2023-03-08T02:56:00;9.3;62
77700;DHT22;66867;42.658;23.320;2023-03-08T02:57:00;9.3;62
77700;DHT22;66867;42.658;23.320;2023-03-08T02:58:02;9.3;62
77700;DHT22;66867;42.658;23.320;2023-03-08T02:59:00;9.2;63
77700;DHT22;66867;42.658;23.320;2023-03-08T03:00:00;9.2;63
77700;DHT22;66867;42.658;23.320;2023-03-08T03:01:00;9.2;63
77700;DHT22;66867;42.658;23.320;2023-03-08T03:02:00;9.2;63
77700;DHT22;66867;42.658;23.320;2023-03-08T03:03:00;9.2;63
77700;DHT22;66867;42.658;23.320;2023-03-08T03:04:00;9.2;63
77700;DHT22;66867;42.658;23.320;2023-03-08T03:05:02;9.2;63
77700;DHT22;66867;42.658;23.320;2023-03-08T03:06:00;9.2;63
77700;DHT22;66867;42.658;23.320;2023-03-08T03:07:00;9.2;63
77700;DHT22;66867;42.658;23.320;2023-03-08T03:08:00;9.2;63
77700;DHT22;66867;42.658;23.320;2023-03-08T03:09:00;9.2;63
77700;DHT22;66867;42.658;23.320;2023-03-08T03:10:00;9.2;63
77700;DHT22;66867;42.658;23.320;2023-03-08T03:11:00;9.2;63
77700;DHT22;66867;42.658;23.320;2023-03-08T03:12:00;9.2;63
77700;DHT22;66867;42.658;23.320;2023-03-08T03:13:00;9.2;63
77700;DHT22;66867;42.658;23.320;2023-03-08T03:14:00;9.2;63
77700;DHT22;66867;42.658;23.320;2023-03-08T03:15:01;9.2;63
77700;DHT22;66867;42.658;23.320;2023-03-08T03:16:04;9.2;63
77700;DHT22;66867;42.658;23.320;2023-03-08T03:17:00;9.1;63
77700;DHT22;66867;42.658;23.320;2023-03-08T03:18:00;9.1;63
77700;DHT22;66867;42.658;23.320;2023-03-08T03:19:00;9.2;63
77700;DHT22;66867;42.658;23.320;2023-03-08T03:20:00;9.1;63
77700;DHT22;66867;42.658;23.320;2023-03-08T03:21:02;9.1;63
77700;DHT22;66867;42.658;23.320;2023-03-08T03:22:00;9.1;63
77700;DHT22;66867;42.658;23.320;2023-03-08T03:23:00;9.1;63
77700;DHT22;66867;42.658;23.320;2023-03-08T03:24:00;9.1;63
77700;DHT22;66867;42.658;23.320;2023-03-08T03:25:00;9.0;63
77700;DHT22;66867;42.658;23.320;2023-03-08T03:26:04;9.0;63
77700;DHT22;66867;42.658;23.320;2023-03-08T03:27:00;9.0;63
77700;DHT22;66867;42.658;23.320;2023-03-08T03:28:00;9.0;63
77700;DHT22;66867;42.658;23.320;2023-03-08T03:29:00;9.0;63
77700;DHT22;66867;42.658;23.320;2023-03-08T03:30:00;9.0;63
77700;DHT22;66867;42.658;23.320;2023-03-08T03:31:00;9.0;64
77700;DHT22;66867;42.658;23.320;2023-03-08T03:32:00;9.0;64
77700;DHT22;66867;42.658;23.320;2023-03-08T03:33:00;9.0;64
77700;DHT22;66867;42.658;23.320;2023-03-08T03:34:00;9.0;63
77700;DHT22;66867;42.658;23.320;2023-03-08T03:35:00;9.0;64
77700;DHT22;66867;42.658;23.320;2023-03-08T03:36:00;9.0;63
77700;DHT22;66867;42.658;23.320;2023-03-08T03:37:00;9.0;63
77700;DHT22;66867;42.658;23.320;2023-03-08T03:38:00;9.0;63
77700;DHT22;66867;42.658;23.320;2023-03-08T03:39:00;9.0;64
77700;DHT22;66867;42.658;23.320;2023-03-08T03:40:00;8.9;64
77700;DHT22;66867;42.658;23.320;2023-03-08T03:41:01;9.0;64
77700;DHT22;66867;42.658;23.320;2023-03-08T03:42:00;9.0;64
77700;DHT22;66867;42.658;23.320;2023-03-08T03:43:00;9.0;64
77700;DHT22;66867;42.658;23.320;2023-03-08T03:44:00;8.9;64
77700;DHT22;66867;42.658;23.320;2023-03-08T03:45:00;8.9;64
77700;DHT22;66867;42.658;23.320;2023-03-08T03:46:01;8.9;64
77700;DHT22;66867;42.658;23.320;2023-03-08T03:47:00;8.9;64
77700;DHT22;66867;42.658;23.320;2023-03-08T03:48:00;8.9;64
77700;DHT22;66867;42.658;23.320;2023-03-08T03:49:00;8.9;64
77700;DHT22;66867;42.658;23.320;2023-03-08T03:50:00;8.9;64
77700;DHT22;66867;42.658;23.320;2023-03-08T03:51:01;8.9;64
77700;DHT22;66867;42.658;23.320;2023-03-08T03:52:00;8.8;64
77700;DHT22;66867;42.658;23.320;2023-03-08T03:53:00;8.8;64
77700;DHT22;66867;42.658;23.320;2023-03-08T03:54:00;8.7;64
77700;DHT22;66867;42.658;23.320;2023-03-08T03:55:00;8.7;64
77700;DHT22;66867;42.658;23.320;2023-03-08T03:56:02;8.7;64
77700;DHT22;66867;42.658;23.320;2023-03-08T03:57:00;8.7;64
77700;DHT22;66867;42.658;23.320;2023-03-08T03:58:00;8.7;64
77700;DHT22;66867;42.658;23.320;2023-03-08T03:59:00;8.7;64
77700;DHT22;66867;42.658;23.320;2023-03-08T04:00:00;8.7;64
77700;DHT22;66867;42.658;23.320;2023-03-08T04:01:00;8.6;64
77700;DHT22;66867;42.658;23.320;2023-03-08T04:02:00;8.6;64
77700;DHT22;66867;42.658;23.320;2023-03-08T04:03:00;8.6;64
77700;DHT22;66867;42.658;23.320;2023-03-08T04:04:00;8.5;64
77700;DHT22;66867;42.658;23.320;2023-03-08T04:05:00;8.5;64
77700;DHT22;66867;42.658;23.320;2023-03-08T04:06:08;8.5;64
77700;DHT22;66867;42.658;23.320;2023-03-08T04:07:00;8.5;64
77700;DHT22;66867;42.658;23.320;2023-03-08T04:08:00;8.5;64
77700;DHT22;66867;42.658;23.320;2023-03-08T04:09:02;8.5;64
77700;DHT22;66867;42.658;23.320;2023-03-08T04:10:00;8.5;64
77700;DHT22;66867;42.658;23.320;2023-03-08T04:11:00;8.5;65
77700;DHT22;66867;42.658;23.320;2023-03-08T04:12:00;8.4;65
77700;DHT22;66867;42.658;23.320;2023-03-08T04:13:00;8.4;65
77700;DHT22;66867;42.658;23.320;2023-03-08T04:14:00;8.5;65
77700;DHT22;66867;42.658;23.320;2023-03-08T04:15:00;8.5;65
77700;DHT22;66867;42.658;23.320;2023-03-08T04:16:07;8.4;65
77700;DHT22;66867;42.658;23.320;2023-03-08T04:17:00;8.5;65
77700;DHT22;66867;42.658;23.320;2023-03-08T04:18:00;8.4;65
77700;DHT22;66867;42.658;23.320;2023-03-08T04:19:01;8.4;65
77700;DHT22;66867;42.658;23.320;2023-03-08T04:20:00;8.4;65
77700;DHT22;66867;42.658;23.320;2023-03-08T04:21:00;8.4;65
77700;DHT22;66867;42.658;23.320;2023-03-08T04:22:00;8.4;65
77700;DHT22;66867;42.658;23.320;2023-03-08T04:23:00;8.4;65
77700;DHT22;66867;42.658;23.320;2023-03-08T04:24:00;8.4;65
77700;DHT22;66867;42.658;23.320;2023-03-08T04:25:00;8.3;65
77700;DHT22;66867;42.658;23.320;2023-03-08T04:26:00;8.4;66
77700;DHT22;66867;42.658;23.320;2023-03-08T04:27:00;8.4;66
77700;DHT22;66867;42.658;23.320;2023-03-08T04:28:00;8.4;66
77700;DHT22;66867;42.658;23.320;2023-03-08T04:29:00;8.3;66
77700;DHT22;66867;42.658;23.320;2023-03-08T04:30:01;8.3;66
77700;DHT22;66867;42.658;23.320;2023-03-08T04:31:10;8.3;66
77700;DHT22;66867;42.658;23.320;2023-03-08T04:32:00;8.3;66
77700;DHT22;66867;42.658;23.320;2023-03-08T04:33:00;8.3;66
77700;DHT22;66867;42.658;23.320;2023-03-08T04:34:00;8.3;66
77700;DHT22;66867;42.658;23.320;2023-03-08T04:35:00;8.3;66
77700;DHT22;66867;42.658;23.320;2023-03-08T04:36:00;8.3;66
77700;DHT22;66867;42.658;23.320;2023-03-08T04:37:00;8.3;66
77700;DHT22;66867;42.658;23.320;2023-03-08T04:38:00;8.3;66
77700;DHT22;66867;42.658;23.320;2023-03-08T04:39:00;8.3;66
77700;DHT22;66867;42.658;23.320;2023-03-08T04:40:00;8.3;66
77700;DHT22;66867;42.658;23.320;2023-03-08T04:41:00;8.3;66
77700;DHT22;66867;42.658;23.320;2023-03-08T04:42:00;8.3;66
77700;DHT22;66867;42.658;23.320;2023-03-08T04:43:00;8.3;66
77700;DHT22;66867;42.658;23.320;2023-03-08T04:44:00;8.3;66
77700;DHT22;66867;42.658;23.320;2023-03-08T04:45:00;8.3;66
77700;DHT22;66867;42.658;23.320;2023-03-08T04:46:00;8.3;66
77700;DHT22;66867;42.658;23.320;2023-03-08T04:47:00;8.3;66
77700;DHT22;66867;42.658;23.320;2023-03-08T04:48:00;8.3;66
77700;DHT22;66867;42.658;23.320;2023-03-08T04:49:00;8.3;66
77700;DHT22;66867;42.658;23.320;2023-03-08T04:50:00;8.2;66
77700;DHT22;66867;42.658;23.320;2023-03-08T04:51:01;8.2;66
77700;DHT22;66867;42.658;23.320;2023-03-08T04:52:00;8.2;66
77700;DHT22;66867;42.658;23.320;2023-03-08T04:53:00;8.2;67
77700;DHT22;66867;42.658;23.320;2023-03-08T04:54:00;8.2;67
77700;DHT22;66867;42.658;23.320;2023-03-08T04:55:00;8.2;67
77700;DHT22;66867;42.658;23.320;2023-03-08T04:56:00;8.2;67
77700;DHT22;66867;42.658;23.320;2023-03-08T04:57:00;8.2;67
77700;DHT22;66867;42.658;23.320;2023-03-08T04:58:00;8.2;67
77700;DHT22;66867;42.658;23.320;2023-03-08T04:59:00;8.2;67
77700;DHT22;66867;42.658;23.320;2023-03-08T05:00:00;8.2;67
77700;DHT22;66867;42.658;23.320;2023-03-08T05:01:07;8.2;67
77700;DHT22;66867;42.658;23.320;2023-03-08T05:02:00;8.2;67
77700;DHT22;66867;42.658;23.320;2023-03-08T05:03:00;8.1;67
77700;DHT22;66867;42.658;23.320;2023-03-08T05:04:00;8.2;68
77700;DHT22;66867;42.658;23.320;2023-03-08T05:05:00;8.2;68
77700;DHT22;66867;42.658;23.320;2023-03-08T05:06:00;8.2;68
77700;DHT22;66867;42.658;23.320;2023-03-08T05:07:00;8.2;68
77700;DHT22;66867;42.658;23.320;2023-03-08T05:08:00;8.2;68
77700;DHT22;66867;42.658;23.320;2023-03-08T05:09:00;8.2;68
77700;DHT22;66867;42.658;23.320;2023-03-08T05:10:00;8.3;69
77700;DHT22;66867;42.658;23.320;2023-03-08T05:11:01;8.3;69
77700;DHT22;66867;42.658;23.320;2023-03-08T05:12:00;8.3;70
77700;DHT22;66867;42.658;23.320;2023-03-08T05:13:00;8.4;70
77700;DHT22;66867;42.658;23.320;2023-03-08T05:14:00;8.5;70
77700;DHT22;66867;42.658;23.320;2023-03-08T05:15:00;8.5;69
77700;DHT22;66867;42.658;23.320;2023-03-08T05:16:01;8.5;69
77700;DHT22;66867;42.658;23.320;2023-03-08T05:17:00;8.6;69
77700;DHT22;66867;42.658;23.320;2023-03-08T05:18:00;8.7;69
77700;DHT22;66867;42.658;23.320;2023-03-08T05:19:00;8.7;69
77700;DHT22;66867;42.658;23.320;2023-03-08T05:20:00;8.9;69
77700;DHT22;66867;42.658;23.320;2023-03-08T05:21:01;9.0;69
77700;DHT22;66867;42.658;23.320;2023-03-08T05:22:00;9.1;68
77700;DHT22;66867;42.658;23.320;2023-03-08T05:23:00;9.1;68
77700;DHT22;66867;42.658;23.320;2023-03-08T05:24:00;9.2;68
77700;DHT22;66867;42.658;23.320;2023-03-08T05:25:00;9.2;67
77700;DHT22;66867;42.658;23.320;2023-03-08T05:26:00;9.3;67
77700;DHT22;66867;42.658;23.320;2023-03-08T05:27:00;9.4;67
77700;DHT22;66867;42.658;23.320;2023-03-08T05:28:00;9.5;66
77700;DHT22;66867;42.658;23.320;2023-03-08T05:30:00;9.6;66
77700;DHT22;66867;42.658;23.320;2023-03-08T05:31:02;9.6;65
77700;DHT22;66867;42.658;23.320;2023-03-08T05:32:00;9.6;65
77700;DHT22;66867;42.658;23.320;2023-03-08T05:33:00;9.6;64
77700;DHT22;66867;42.658;23.320;2023-03-08T05:34:00;9.6;64
77700;DHT22;66867;42.658;23.320;2023-03-08T05:35:00;9.6;64
77700;DHT22;66867;42.658;23.320;2023-03-08T05:36:00;9.6;64
77700;DHT22;66867;42.658;23.320;2023-03-08T05:37:00;9.7;64
77700;DHT22;66867;42.658;23.320;2023-03-08T05:38:00;9.6;64
77700;DHT22;66867;42.658;23.320;2023-03-08T05:39:00;9.6;64
77700;DHT22;66867;42.658;23.320;2023-03-08T05:40:00;9.6;64
77700;DHT22;66867;42.658;23.320;2023-03-08T05:41:01;9.6;64
77700;DHT22;66867;42.658;23.320;2023-03-08T05:42:00;9.6;63
77700;DHT22;66867;42.658;23.320;2023-03-08T05:43:00;9.6;63
77700;DHT22;66867;42.658;23.320;2023-03-08T05:44:00;9.6;63
77700;DHT22;66867;42.658;23.320;2023-03-08T05:45:00;9.6;63
77700;DHT22;66867;42.658;23.320;2023-03-08T05:46:01;9.6;63
77700;DHT22;66867;42.658;23.320;2023-03-08T05:47:00;9.6;63
77700;DHT22;66867;42.658;23.320;2023-03-08T05:48:00;9.6;64
77700;DHT22;66867;42.658;23.320;2023-03-08T05:49:00;9.6;63
77700;DHT22;66867;42.658;23.320;2023-03-08T05:50:00;9.6;63
77700;DHT22;66867;42.658;23.320;2023-03-08T05:51:04;9.5;64
77700;DHT22;66867;42.658;23.320;2023-03-08T05:52:00;9.5;64
77700;DHT22;66867;42.658;23.320;2023-03-08T05:53:00;9.5;64
77700;DHT22;66867;42.658;23.320;2023-03-08T05:54:00;9.5;64
77700;DHT22;66867;42.658;23.320;2023-03-08T05:55:00;9.5;64
77700;DHT22;66867;42.658;23.320;2023-03-08T05:57:00;9.5;64
77700;DHT22;66867;42.658;23.320;2023-03-08T05:58:00;9.5;64
77700;DHT22;66867;42.658;23.320;2023-03-08T06:01:07;9.5;65
77700;DHT22;66867;42.658;23.320;2023-03-08T06:02:00;9.4;65
77700;DHT22;66867;42.658;23.320;2023-03-08T06:03:00;9.4;65
77700;DHT22;66867;42.658;23.320;2023-03-08T06:04:00;9.4;65
77700;DHT22;66867;42.658;23.320;2023-03-08T06:06:00;9.4;65
77700;DHT22;66867;42.658;23.320;2023-03-08T06:07:00;9.3;65
77700;DHT22;66867;42.658;23.320;2023-03-08T06:08:00;9.3;65
77700;DHT22;66867;42.658;23.320;2023-03-08T06:14:00;9.3;66
77700;DHT22;66867;42.658;23.320;2023-03-08T06:15:00;9.3;66
77700;DHT22;66867;42.658;23.320;2023-03-08T06:16:00;9.3;66
77700;DHT22;66867;42.658;23.320;2023-03-08T06:17:00;9.3;66
77700;DHT22;66867;42.658;23.320;2023-03-08T06:21:16;9.3;68
77700;DHT22;66867;42.658;23.320;2023-03-08T06:23:00;9.5;68
77700;DHT22;66867;42.658;23.320;2023-03-08T06:24:00;9.5;68
77700;DHT22;66867;42.658;23.320;2023-03-08T06:25:00;9.6;68
77700;DHT22;66867;42.658;23.320;2023-03-08T06:27:00;9.8;67
77700;DHT22;66867;42.658;23.320;2023-03-08T06:30:00;9.9;65
77700;DHT22;66867;42.658;23.320;2023-03-08T06:32:00;9.9;64
77700;DHT22;66867;42.658;23.320;2023-03-08T06:33:00;9.9;64
77700;DHT22;66867;42.658;23.320;2023-03-08T06:34:00;9.9;64
77700;DHT22;66867;42.658;23.320;2023-03-08T06:35:00;9.9;64
77700;DHT22;66867;42.658;23.320;2023-03-08T06:42:00;10.5;66
77700;DHT22;66867;42.658;23.320;2023-03-08T06:43:00;10.6;66
77700;DHT22;66867;42.658;23.320;2023-03-08T06:44:00;10.7;65
77700;DHT22;66867;42.658;23.320;2023-03-08T06:45:00;10.7;65
77700;DHT22;66867;42.658;23.320;2023-03-08T06:46:08;10.8;65
77700;DHT22;66867;42.658;23.320;2023-03-08T06:47:00;10.9;64
77700;DHT22;66867;42.658;23.320;2023-03-08T06:48:00;10.9;64
77700;DHT22;66867;42.658;23.320;2023-03-08T06:49:00;11.0;64
77700;DHT22;66867;42.658;23.320;2023-03-08T06:50:00;11.1;64
77700;DHT22;66867;42.658;23.320;2023-03-08T06:51:00;11.2;64
77700;DHT22;66867;42.658;23.320;2023-03-08T06:52:00;11.2;63
77700;DHT22;66867;42.658;23.320;2023-03-08T06:53:00;11.2;64
77700;DHT22;66867;42.658;23.320;2023-03-08T06:54:00;11.3;64
77700;DHT22;66867;42.658;23.320;2023-03-08T06:55:00;11.4;63
77700;DHT22;66867;42.658;23.320;2023-03-08T06:56:00;11.5;63
77700;DHT22;66867;42.658;23.320;2023-03-08T06:57:00;11.6;63
77700;DHT22;66867;42.658;23.320;2023-03-08T06:58:00;11.7;63
77700;DHT22;66867;42.658;23.320;2023-03-08T06:59:00;11.8;63
77700;DHT22;66867;42.658;23.320;2023-03-08T07:00:00;12.0;62
77700;DHT22;66867;42.658;23.320;2023-03-08T07:01:00;12.1;62
77700;DHT22;66867;42.658;23.320;2023-03-08T07:02:00;12.2;62
77700;DHT22;66867;42.658;23.320;2023-03-08T07:03:00;12.3;62
77700;DHT22;66867;42.658;23.320;2023-03-08T07:04:00;12.3;62
77700;DHT22;66867;42.658;23.320;2023-03-08T07:05:00;12.5;61
77700;DHT22;66867;42.658;23.320;2023-03-08T07:06:02;12.6;61
77700;DHT22;66867;42.658;23.320;2023-03-08T07:07:00;12.8;60
77700;DHT22;66867;42.658;23.320;2023-03-08T07:08:00;13.0;59
77700;DHT22;66867;42.658;23.320;2023-03-08T07:09:00;13.0;59
77700;DHT22;66867;42.658;23.320;2023-03-08T07:10:00;13.1;59